sensor_id;sensor_type;location;lat;lon;timestamp;P1;durP1;ratioP1;P2;durP2;ratioP2
4084;SDS011;2057;50.858;6.572;2023-08-31T00:02:21;9.40;;;4.07;;
4084;SDS011;2057;50.858;6.572;2023-08-31T00:04:46;7.87;;;4.00;;
4084;SDS011;2057;50.858;6.572;2023-08-31T00:07:18;9.03;;;3.87;;
4084;SDS011;2057;50.858;6.572;2023-08-31T00:09:43;6.40;;;4.20;;
4084;SDS011;2057;50.858;6.572;2023-08-31T00:12:09;12.40;;;4.50;;
4084;SDS011;2057;50.858;6.572;2023-08-31T00:14:36;8.00;;;4.03;;
4084;SDS011;2057;50.858;6.572;2023-08-31T00:17:02;9.73;;;4.80;;
4084;SDS011;2057;50.858;6.572;2023-08-31T00:19:28;12.57;;;3.60;;
4084;SDS011;2057;50.858;6.572;2023-08-31T00:21:56;11.37;;;3.87;;
4084;SDS011;2057;50.858;6.572;2023-08-31T00:24:23;9.33;;;4.43;;
4084;SDS011;2057;50.858;6.572;2023-08-31T00:26:54;15.37;;;4.87;;
4084;SDS011;2057;50.858;6.572;2023-08-31T00:29:20;8.87;;;3.53;;
4084;SDS011;2057;50.858;6.572;2023-08-31T00:31:47;12.13;;;3.60;;
4084;SDS011;2057;50.858;6.572;2023-08-31T00:34:14;20.33;;;3.63;;
4084;SDS011;2057;50.858;6.572;2023-08-31T00:36:44;9.03;;;4.70;;
4084;SDS011;2057;50.858;6.572;2023-08-31T00:39:10;10.63;;;4.10;;
4084;SDS011;2057;50.858;6.572;2023-08-31T00:41:36;8.60;;;4.17;;
4084;SDS011;2057;50.858;6.572;2023-08-31T00:44:02;6.00;;;4.20;;
4084;SDS011;2057;50.858;6.572;2023-08-31T00:46:30;10.63;;;4.00;;
4084;SDS011;2057;50.858;6.572;2023-08-31T00:48:56;12.23;;;4.60;;
4084;SDS011;2057;50.858;6.572;2023-08-31T00:51:22;8.00;;;3.37;;
4084;SDS011;2057;50.858;6.572;2023-08-31T00:53:48;9.53;;;3.47;;
4084;SDS011;2057;50.858;6.572;2023-08-31T00:56:18;6.37;;;3.20;;
4084;SDS011;2057;50.858;6.572;2023-08-31T00:58:44;17.33;;;4.17;;
4084;SDS011;2057;50.858;6.572;2023-08-31T01:01:11;4.90;;;3.10;;
4084;SDS011;2057;50.858;6.572;2023-08-31T01:04:01;8.20;;;3.50;;
4084;SDS011;2057;50.858;6.572;2023-08-31T01:14:44;4.77;;;2.97;;
4084;SDS011;2057;50.858;6.572;2023-08-31T01:17:16;6.23;;;2.90;;
4084;SDS011;2057;50.858;6.572;2023-08-31T01:19:47;10.13;;;3.33;;
4084;SDS011;2057;50.858;6.572;2023-08-31T01:22:17;6.10;;;2.60;;
4084;SDS011;2057;50.858;6.572;2023-08-31T01:24:49;4.90;;;3.00;;
4084;SDS011;2057;50.858;6.572;2023-08-31T01:27:16;15.03;;;3.70;;
4084;SDS011;2057;50.858;6.572;2023-08-31T01:29:46;4.53;;;2.43;;
4084;SDS011;2057;50.858;6.572;2023-08-31T01:32:19;12.97;;;3.10;;
4084;SDS011;2057;50.858;6.572;2023-08-31T01:34:44;7.43;;;2.93;;
4084;SDS011;2057;50.858;6.572;2023-08-31T01:37:17;4.00;;;2.73;;
4084;SDS011;2057;50.858;6.572;2023-08-31T01:39:52;5.10;;;3.00;;
4084;SDS011;2057;50.858;6.572;2023-08-31T01:42:25;6.20;;;2.67;;
4084;SDS011;2057;50.858;6.572;2023-08-31T01:44:52;4.97;;;2.57;;
4084;SDS011;2057;50.858;6.572;2023-08-31T01:47:24;8.73;;;2.53;;
4084;SDS011;2057;50.858;6.572;2023-08-31T01:49:50;4.80;;;2.80;;
4084;SDS011;2057;50.858;6.572;2023-08-31T01:52:16;3.50;;;2.60;;
4084;SDS011;2057;50.858;6.572;2023-08-31T01:54:42;8.43;;;3.10;;
4084;SDS011;2057;50.858;6.572;2023-08-31T01:57:09;11.37;;;3.70;;
4084;SDS011;2057;50.858;6.572;2023-08-31T01:59:35;6.00;;;3.07;;
4084;SDS011;2057;50.858;6.572;2023-08-31T02:02:00;4.53;;;2.63;;
4084;SDS011;2057;50.858;6.572;2023-08-31T02:04:28;8.37;;;3.40;;
4084;SDS011;2057;50.858;6.572;2023-08-31T02:06:54;3.47;;;2.97;;
4084;SDS011;2057;50.858;6.572;2023-08-31T02:09:19;4.37;;;3.17;;
4084;SDS011;2057;50.858;6.572;2023-08-31T02:11:47;2.77;;;2.57;;
4084;SDS011;2057;50.858;6.572;2023-08-31T02:14:12;7.03;;;2.80;;
4084;SDS011;2057;50.858;6.572;2023-08-31T02:16:37;4.97;;;2.20;;
4084;SDS011;2057;50.858;6.572;2023-08-31T02:19:03;3.53;;;2.77;;
4084;SDS011;2057;50.858;6.572;2023-08-31T02:21:28;22.23;;;3.90;;
4084;SDS011;2057;50.858;6.572;2023-08-31T02:23:53;3.10;;;2.73;;
4084;SDS011;2057;50.858;6.572;2023-08-31T02:26:29;6.17;;;2.87;;
4084;SDS011;2057;50.858;6.572;2023-08-31T02:28:56;5.13;;;2.67;;
4084;SDS011;2057;50.858;6.572;2023-08-31T02:31:25;6.43;;;3.77;;
4084;SDS011;2057;50.858;6.572;2023-08-31T02:33:50;6.47;;;3.17;;
4084;SDS011;2057;50.858;6.572;2023-08-31T02:36:16;12.63;;;3.30;;
4084;SDS011;2057;50.858;6.572;2023-08-31T02:38:41;6.40;;;3.17;;
4084;SDS011;2057;50.858;6.572;2023-08-31T02:41:06;8.63;;;3.10;;
4084;SDS011;2057;50.858;6.572;2023-08-31T02:43:32;5.37;;;2.97;;
4084;SDS011;2057;50.858;6.572;2023-08-31T02:46:00;11.83;;;2.87;;
4084;SDS011;2057;50.858;6.572;2023-08-31T02:48:27;6.37;;;4.00;;
4084;SDS011;2057;50.858;6.572;2023-08-31T02:50:53;7.77;;;3.97;;
4084;SDS011;2057;50.858;6.572;2023-08-31T02:53:18;9.27;;;3.77;;
4084;SDS011;2057;50.858;6.572;2023-08-31T02:55:46;9.30;;;3.53;;
4084;SDS011;2057;50.858;6.572;2023-08-31T02:58:12;8.03;;;3.93;;
4084;SDS011;2057;50.858;6.572;2023-08-31T03:00:40;8.00;;;3.63;;
4084;SDS011;2057;50.858;6.572;2023-08-31T03:03:07;12.60;;;3.67;;
4084;SDS011;2057;50.858;6.572;2023-08-31T03:05:33;8.10;;;3.40;;
4084;SDS011;2057;50.858;6.572;2023-08-31T03:07:59;6.57;;;3.60;;
4084;SDS011;2057;50.858;6.572;2023-08-31T03:10:29;7.90;;;3.77;;
4084;SDS011;2057;50.858;6.572;2023-08-31T03:12:54;7.83;;;4.50;;
4084;SDS011;2057;50.858;6.572;2023-08-31T03:15:20;6.53;;;3.50;;
4084;SDS011;2057;50.858;6.572;2023-08-31T03:17:45;5.43;;;3.00;;
4084;SDS011;2057;50.858;6.572;2023-08-31T03:20:13;6.97;;;3.67;;
4084;SDS011;2057;50.858;6.572;2023-08-31T03:22:39;8.43;;;4.00;;
4084;SDS011;2057;50.858;6.572;2023-08-31T03:25:04;8.50;;;4.40;;
4084;SDS011;2057;50.858;6.572;2023-08-31T03:27:30;12.87;;;3.50;;
4084;SDS011;2057;50.858;6.572;2023-08-31T03:29:55;7.13;;;4.90;;
4084;SDS011;2057;50.858;6.572;2023-08-31T03:32:20;5.17;;;3.87;;
4084;SDS011;2057;50.858;6.572;2023-08-31T03:34:46;7.07;;;3.00;;
4084;SDS011;2057;50.858;6.572;2023-08-31T03:37:14;8.97;;;3.80;;
4084;SDS011;2057;50.858;6.572;2023-08-31T03:39:41;11.27;;;4.10;;
4084;SDS011;2057;50.858;6.572;2023-08-31T03:42:09;9.70;;;4.60;;
4084;SDS011;2057;50.858;6.572;2023-08-31T03:44:35;4.90;;;3.33;;
4084;SDS011;2057;50.858;6.572;2023-08-31T03:47:02;6.07;;;3.03;;
4084;SDS011;2057;50.858;6.572;2023-08-31T03:49:27;9.50;;;3.63;;
4084;SDS011;2057;50.858;6.572;2023-08-31T03:51:52;6.23;;;3.60;;
4084;SDS011;2057;50.858;6.572;2023-08-31T03:54:19;8.57;;;3.43;;
4084;SDS011;2057;50.858;6.572;2023-08-31T03:56:45;10.97;;;3.87;;
4084;SDS011;2057;50.858;6.572;2023-08-31T03:59:10;7.43;;;3.50;;
4084;SDS011;2057;50.858;6.572;2023-08-31T04:01:37;10.97;;;3.83;;
4084;SDS011;2057;50.858;6.572;2023-08-31T04:04:03;7.70;;;2.97;;
4084;SDS011;2057;50.858;6.572;2023-08-31T04:06:29;5.13;;;2.43;;
4084;SDS011;2057;50.858;6.572;2023-08-31T04:08:55;5.90;;;4.23;;
4084;SDS011;2057;50.858;6.572;2023-08-31T04:11:20;10.47;;;4.43;;
4084;SDS011;2057;50.858;6.572;2023-08-31T04:13:48;7.17;;;3.80;;
4084;SDS011;2057;50.858;6.572;2023-08-31T04:16:13;5.40;;;3.50;;
4084;SDS011;2057;50.858;6.572;2023-08-31T04:18:38;15.33;;;3.50;;
4084;SDS011;2057;50.858;6.572;2023-08-31T04:21:04;12.87;;;3.93;;
4084;SDS011;2057;50.858;6.572;2023-08-31T04:23:30;9.50;;;4.13;;
4084;SDS011;2057;50.858;6.572;2023-08-31T04:25:56;11.47;;;4.13;;
4084;SDS011;2057;50.858;6.572;2023-08-31T04:28:22;13.90;;;3.80;;
4084;SDS011;2057;50.858;6.572;2023-08-31T04:30:49;8.37;;;3.43;;
4084;SDS011;2057;50.858;6.572;2023-08-31T04:33:14;8.73;;;3.67;;
4084;SDS011;2057;50.858;6.572;2023-08-31T04:35:40;4.40;;;3.23;;
4084;SDS011;2057;50.858;6.572;2023-08-31T04:38:06;10.33;;;3.70;;
4084;SDS011;2057;50.858;6.572;2023-08-31T04:40:32;5.37;;;3.37;;
4084;SDS011;2057;50.858;6.572;2023-08-31T04:42:57;12.40;;;3.47;;
4084;SDS011;2057;50.858;6.572;2023-08-31T04:45:22;14.13;;;3.57;;
4084;SDS011;2057;50.858;6.572;2023-08-31T04:47:48;10.43;;;3.00;;
4084;SDS011;2057;50.858;6.572;2023-08-31T04:50:15;9.03;;;4.23;;
4084;SDS011;2057;50.858;6.572;2023-08-31T04:52:41;6.87;;;3.47;;
4084;SDS011;2057;50.858;6.572;2023-08-31T04:55:09;15.47;;;3.33;;
4084;SDS011;2057;50.858;6.572;2023-08-31T04:57:36;6.10;;;3.43;;
4084;SDS011;2057;50.858;6.572;2023-08-31T05:00:02;9.70;;;3.90;;
4084;SDS011;2057;50.858;6.572;2023-08-31T05:02:29;8.53;;;3.90;;
4084;SDS011;2057;50.858;6.572;2023-08-31T05:04:55;8.20;;;3.93;;
4084;SDS011;2057;50.858;6.572;2023-08-31T05:07:20;11.37;;;3.17;;
4084;SDS011;2057;50.858;6.572;2023-08-31T05:09:45;8.70;;;3.53;;
4084;SDS011;2057;50.858;6.572;2023-08-31T05:12:15;11.10;;;3.40;;
4084;SDS011;2057;50.858;6.572;2023-08-31T05:14:42;12.53;;;3.27;;
4084;SDS011;2057;50.858;6.572;2023-08-31T05:17:08;7.27;;;2.90;;
4084;SDS011;2057;50.858;6.572;2023-08-31T05:19:36;8.03;;;3.10;;
4084;SDS011;2057;50.858;6.572;2023-08-31T05:22:01;8.17;;;3.37;;
4084;SDS011;2057;50.858;6.572;2023-08-31T05:24:27;18.43;;;3.37;;
4084;SDS011;2057;50.858;6.572;2023-08-31T05:26:52;13.30;;;3.90;;
4084;SDS011;2057;50.858;6.572;2023-08-31T05:29:17;8.33;;;3.30;;
4084;SDS011;2057;50.858;6.572;2023-08-31T05:31:43;9.63;;;2.90;;
4084;SDS011;2057;50.858;6.572;2023-08-31T05:34:13;7.17;;;3.07;;
4084;SDS011;2057;50.858;6.572;2023-08-31T05:36:43;11.63;;;3.73;;
4084;SDS011;2057;50.858;6.572;2023-08-31T05:39:08;7.50;;;2.70;;
4084;SDS011;2057;50.858;6.572;2023-08-31T05:41:34;4.93;;;2.80;;
4084;SDS011;2057;50.858;6.572;2023-08-31T05:44:00;5.33;;;3.40;;
4084;SDS011;2057;50.858;6.572;2023-08-31T05:46:25;5.73;;;2.57;;
4084;SDS011;2057;50.858;6.572;2023-08-31T05:48:50;10.53;;;3.30;;
4084;SDS011;2057;50.858;6.572;2023-08-31T05:51:17;4.33;;;2.73;;
4084;SDS011;2057;50.858;6.572;2023-08-31T05:53:42;13.00;;;3.10;;
4084;SDS011;2057;50.858;6.572;2023-08-31T05:56:10;7.80;;;2.90;;
4084;SDS011;2057;50.858;6.572;2023-08-31T05:58:36;16.23;;;3.97;;
4084;SDS011;2057;50.858;6.572;2023-08-31T06:01:02;7.20;;;3.23;;
4084;SDS011;2057;50.858;6.572;2023-08-31T06:03:29;8.40;;;3.00;;
4084;SDS011;2057;50.858;6.572;2023-08-31T06:05:55;12.10;;;2.77;;
4084;SDS011;2057;50.858;6.572;2023-08-31T06:08:23;19.13;;;3.23;;
4084;SDS011;2057;50.858;6.572;2023-08-31T06:10:52;12.53;;;3.47;;
4084;SDS011;2057;50.858;6.572;2023-08-31T06:13:20;8.20;;;2.80;;
4084;SDS011;2057;50.858;6.572;2023-08-31T06:15:45;5.13;;;3.07;;
4084;SDS011;2057;50.858;6.572;2023-08-31T06:18:11;9.17;;;2.70;;
4084;SDS011;2057;50.858;6.572;2023-08-31T06:20:36;11.07;;;3.23;;
4084;SDS011;2057;50.858;6.572;2023-08-31T06:23:02;14.90;;;2.80;;
4084;SDS011;2057;50.858;6.572;2023-08-31T06:25:28;9.53;;;3.10;;
4084;SDS011;2057;50.858;6.572;2023-08-31T06:27:53;3.60;;;2.10;;
4084;SDS011;2057;50.858;6.572;2023-08-31T06:30:19;13.30;;;3.07;;
4084;SDS011;2057;50.858;6.572;2023-08-31T06:32:47;11.17;;;2.57;;
4084;SDS011;2057;50.858;6.572;2023-08-31T06:35:13;7.80;;;2.47;;
4084;SDS011;2057;50.858;6.572;2023-08-31T06:37:40;6.33;;;2.47;;
4084;SDS011;2057;50.858;6.572;2023-08-31T06:40:06;7.10;;;2.40;;
4084;SDS011;2057;50.858;6.572;2023-08-31T06:42:33;9.00;;;2.50;;
4084;SDS011;2057;50.858;6.572;2023-08-31T06:45:06;13.87;;;2.93;;
4084;SDS011;2057;50.858;6.572;2023-08-31T06:47:32;7.40;;;2.63;;
4084;SDS011;2057;50.858;6.572;2023-08-31T06:49:58;4.90;;;2.27;;
4084;SDS011;2057;50.858;6.572;2023-08-31T06:52:24;6.83;;;2.13;;
4084;SDS011;2057;50.858;6.572;2023-08-31T06:54:52;5.30;;;2.63;;
4084;SDS011;2057;50.858;6.572;2023-08-31T06:57:24;3.00;;;2.37;;
4084;SDS011;2057;50.858;6.572;2023-08-31T06:59:51;7.23;;;3.03;;
4084;SDS011;2057;50.858;6.572;2023-08-31T07:02:17;7.23;;;2.47;;
4084;SDS011;2057;50.858;6.572;2023-08-31T07:04:44;7.53;;;2.33;;
4084;SDS011;2057;50.858;6.572;2023-08-31T07:07:10;5.53;;;2.23;;
4084;SDS011;2057;50.858;6.572;2023-08-31T07:09:36;3.27;;;1.87;;
4084;SDS011;2057;50.858;6.572;2023-08-31T07:12:01;13.03;;;2.27;;
4084;SDS011;2057;50.858;6.572;2023-08-31T07:14:27;6.20;;;3.50;;
4084;SDS011;2057;50.858;6.572;2023-08-31T07:16:55;8.57;;;2.70;;
4084;SDS011;2057;50.858;6.572;2023-08-31T07:19:21;3.97;;;1.90;;
4084;SDS011;2057;50.858;6.572;2023-08-31T07:21:48;6.93;;;2.13;;
4084;SDS011;2057;50.858;6.572;2023-08-31T07:24:14;7.60;;;3.17;;
4084;SDS011;2057;50.858;6.572;2023-08-31T07:26:39;8.63;;;2.43;;
4084;SDS011;2057;50.858;6.572;2023-08-31T07:29:04;9.20;;;2.37;;
4084;SDS011;2057;50.858;6.572;2023-08-31T07:31:33;8.67;;;2.30;;
4084;SDS011;2057;50.858;6.572;2023-08-31T07:33:58;7.63;;;2.37;;
4084;SDS011;2057;50.858;6.572;2023-08-31T07:36:24;3.90;;;2.10;;
4084;SDS011;2057;50.858;6.572;2023-08-31T07:38:49;8.20;;;2.67;;
4084;SDS011;2057;50.858;6.572;2023-08-31T07:41:15;6.53;;;2.40;;
4084;SDS011;2057;50.858;6.572;2023-08-31T07:43:40;7.53;;;2.47;;
4084;SDS011;2057;50.858;6.572;2023-08-31T07:46:05;10.37;;;2.57;;
4084;SDS011;2057;50.858;6.572;2023-08-31T07:48:31;6.43;;;2.40;;
4084;SDS011;2057;50.858;6.572;2023-08-31T07:50:56;3.37;;;2.10;;
4084;SDS011;2057;50.858;6.572;2023-08-31T07:53:21;8.03;;;2.10;;
4084;SDS011;2057;50.858;6.572;2023-08-31T07:55:53;7.77;;;3.07;;
4084;SDS011;2057;50.858;6.572;2023-08-31T07:58:20;4.87;;;2.13;;
4084;SDS011;2057;50.858;6.572;2023-08-31T08:00:46;5.60;;;2.83;;
4084;SDS011;2057;50.858;6.572;2023-08-31T08:03:11;3.60;;;2.53;;
4084;SDS011;2057;50.858;6.572;2023-08-31T08:05:37;15.47;;;3.10;;
4084;SDS011;2057;50.858;6.572;2023-08-31T08:08:05;6.37;;;2.47;;
4084;SDS011;2057;50.858;6.572;2023-08-31T08:10:30;6.80;;;2.20;;
4084;SDS011;2057;50.858;6.572;2023-08-31T08:12:58;13.60;;;2.30;;
4084;SDS011;2057;50.858;6.572;2023-08-31T08:15:24;5.20;;;2.70;;
4084;SDS011;2057;50.858;6.572;2023-08-31T08:17:51;7.30;;;2.60;;
4084;SDS011;2057;50.858;6.572;2023-08-31T08:20:18;5.93;;;2.23;;
4084;SDS011;2057;50.858;6.572;2023-08-31T08:22:44;6.13;;;2.30;;
4084;SDS011;2057;50.858;6.572;2023-08-31T08:25:10;9.03;;;2.63;;
4084;SDS011;2057;50.858;6.572;2023-08-31T08:27:35;9.53;;;2.60;;
4084;SDS011;2057;50.858;6.572;2023-08-31T08:30:02;7.33;;;2.73;;
4084;SDS011;2057;50.858;6.572;2023-08-31T08:32:27;5.47;;;2.53;;
4084;SDS011;2057;50.858;6.572;2023-08-31T08:34:56;9.93;;;2.43;;
4084;SDS011;2057;50.858;6.572;2023-08-31T08:37:21;5.23;;;2.70;;
4084;SDS011;2057;50.858;6.572;2023-08-31T08:39:49;5.50;;;2.30;;
4084;SDS011;2057;50.858;6.572;2023-08-31T08:42:15;7.33;;;3.37;;
4084;SDS011;2057;50.858;6.572;2023-08-31T08:44:43;5.20;;;2.90;;
4084;SDS011;2057;50.858;6.572;2023-08-31T08:47:09;10.33;;;3.03;;
4084;SDS011;2057;50.858;6.572;2023-08-31T08:49:36;7.10;;;2.37;;
4084;SDS011;2057;50.858;6.572;2023-08-31T08:52:03;13.83;;;3.17;;
4084;SDS011;2057;50.858;6.572;2023-08-31T08:54:29;7.63;;;2.83;;
4084;SDS011;2057;50.858;6.572;2023-08-31T08:56:57;3.93;;;2.50;;
4084;SDS011;2057;50.858;6.572;2023-08-31T08:59:23;6.67;;;1.93;;
4084;SDS011;2057;50.858;6.572;2023-08-31T09:01:49;9.37;;;2.57;;
4084;SDS011;2057;50.858;6.572;2023-08-31T09:04:14;2.70;;;2.17;;
4084;SDS011;2057;50.858;6.572;2023-08-31T09:06:40;8.67;;;2.37;;
4084;SDS011;2057;50.858;6.572;2023-08-31T09:09:07;20.23;;;2.63;;
4084;SDS011;2057;50.858;6.572;2023-08-31T09:11:34;7.83;;;2.90;;
4084;SDS011;2057;50.858;6.572;2023-08-31T09:14:00;10.73;;;3.00;;
4084;SDS011;2057;50.858;6.572;2023-08-31T09:16:46;5.10;;;2.10;;
4084;SDS011;2057;50.858;6.572;2023-08-31T09:19:22;7.13;;;2.83;;
4084;SDS011;2057;50.858;6.572;2023-08-31T09:21:53;6.20;;;2.43;;
4084;SDS011;2057;50.858;6.572;2023-08-31T09:24:20;5.37;;;2.20;;
4084;SDS011;2057;50.858;6.572;2023-08-31T09:26:49;10.00;;;2.80;;
4084;SDS011;2057;50.858;6.572;2023-08-31T09:29:18;6.27;;;2.73;;
4084;SDS011;2057;50.858;6.572;2023-08-31T09:31:44;5.67;;;1.83;;
4084;SDS011;2057;50.858;6.572;2023-08-31T09:34:10;11.90;;;2.67;;
4084;SDS011;2057;50.858;6.572;2023-08-31T09:36:36;22.33;;;2.63;;
4084;SDS011;2057;50.858;6.572;2023-08-31T09:39:03;7.73;;;2.30;;
4084;SDS011;2057;50.858;6.572;2023-08-31T09:41:29;6.77;;;2.13;;
4084;SDS011;2057;50.858;6.572;2023-08-31T09:43:55;8.00;;;2.70;;
4084;SDS011;2057;50.858;6.572;2023-08-31T09:46:20;8.43;;;1.77;;
4084;SDS011;2057;50.858;6.572;2023-08-31T09:48:46;8.50;;;2.47;;
4084;SDS011;2057;50.858;6.572;2023-08-31T09:51:13;7.90;;;2.10;;
4084;SDS011;2057;50.858;6.572;2023-08-31T09:53:42;8.20;;;2.50;;
4084;SDS011;2057;50.858;6.572;2023-08-31T09:56:13;6.57;;;2.53;;
4084;SDS011;2057;50.858;6.572;2023-08-31T09:58:45;8.50;;;3.00;;
4084;SDS011;2057;50.858;6.572;2023-08-31T10:01:11;6.00;;;2.43;;
4084;SDS011;2057;50.858;6.572;2023-08-31T10:03:37;12.90;;;3.37;;
4084;SDS011;2057;50.858;6.572;2023-08-31T10:06:03;8.80;;;3.27;;
4084;SDS011;2057;50.858;6.572;2023-08-31T10:08:29;5.20;;;2.83;;
4084;SDS011;2057;50.858;6.572;2023-08-31T10:10:58;11.20;;;3.27;;
4084;SDS011;2057;50.858;6.572;2023-08-31T10:13:29;11.23;;;3.70;;
4084;SDS011;2057;50.858;6.572;2023-08-31T10:16:00;8.30;;;3.03;;
4084;SDS011;2057;50.858;6.572;2023-08-31T10:18:42;10.73;;;3.57;;
4084;SDS011;2057;50.858;6.572;2023-08-31T10:21:07;10.80;;;3.83;;
4084;SDS011;2057;50.858;6.572;2023-08-31T10:23:35;16.83;;;4.00;;
4084;SDS011;2057;50.858;6.572;2023-08-31T10:26:01;14.33;;;3.90;;
4084;SDS011;2057;50.858;6.572;2023-08-31T10:28:28;8.73;;;3.17;;
4084;SDS011;2057;50.858;6.572;2023-08-31T10:31:04;20.83;;;3.60;;
4084;SDS011;2057;50.858;6.572;2023-08-31T10:33:32;12.13;;;3.63;;
4084;SDS011;2057;50.858;6.572;2023-08-31T10:36:08;8.47;;;3.63;;
4084;SDS011;2057;50.858;6.572;2023-08-31T10:38:38;11.90;;;4.00;;
4084;SDS011;2057;50.858;6.572;2023-08-31T10:51:23;8.53;;;2.63;;
4084;SDS011;2057;50.858;6.572;2023-08-31T10:59:19;8.10;;;2.60;;
4084;SDS011;2057;50.858;6.572;2023-08-31T11:01:57;9.20;;;2.70;;
4084;SDS011;2057;50.858;6.572;2023-08-31T11:04:25;14.47;;;4.20;;
4084;SDS011;2057;50.858;6.572;2023-08-31T11:09:43;15.27;;;3.90;;
4084;SDS011;2057;50.858;6.572;2023-08-31T11:12:09;10.47;;;3.83;;
4084;SDS011;2057;50.858;6.572;2023-08-31T11:14:35;13.90;;;4.27;;
4084;SDS011;2057;50.858;6.572;2023-08-31T11:17:01;17.27;;;4.60;;
4084;SDS011;2057;50.858;6.572;2023-08-31T11:19:29;11.00;;;4.20;;
4084;SDS011;2057;50.858;6.572;2023-08-31T11:21:55;6.23;;;2.80;;
4084;SDS011;2057;50.858;6.572;2023-08-31T11:24:20;14.97;;;3.67;;
4084;SDS011;2057;50.858;6.572;2023-08-31T11:26:49;4.50;;;2.23;;
4084;SDS011;2057;50.858;6.572;2023-08-31T11:29:15;14.53;;;2.80;;
4084;SDS011;2057;50.858;6.572;2023-08-31T11:31:41;11.13;;;3.20;;
4084;SDS011;2057;50.858;6.572;2023-08-31T11:34:07;11.60;;;3.53;;
4084;SDS011;2057;50.858;6.572;2023-08-31T11:36:37;9.90;;;3.83;;
4084;SDS011;2057;50.858;6.572;2023-08-31T11:39:03;13.17;;;4.13;;
4084;SDS011;2057;50.858;6.572;2023-08-31T11:41:35;15.30;;;4.43;;
4084;SDS011;2057;50.858;6.572;2023-08-31T11:44:03;11.90;;;4.90;;
4084;SDS011;2057;50.858;6.572;2023-08-31T11:46:29;15.00;;;4.90;;
4084;SDS011;2057;50.858;6.572;2023-08-31T11:48:55;14.10;;;5.07;;
4084;SDS011;2057;50.858;6.572;2023-08-31T11:51:23;18.10;;;5.93;;
4084;SDS011;2057;50.858;6.572;2023-08-31T11:53:49;16.00;;;5.40;;
4084;SDS011;2057;50.858;6.572;2023-08-31T11:56:14;15.07;;;6.47;;
4084;SDS011;2057;50.858;6.572;2023-08-31T11:58:41;11.57;;;3.60;;
4084;SDS011;2057;50.858;6.572;2023-08-31T12:01:07;4.53;;;3.37;;
4084;SDS011;2057;50.858;6.572;2023-08-31T12:03:43;7.73;;;2.70;;
4084;SDS011;2057;50.858;6.572;2023-08-31T12:06:14;12.53;;;4.57;;
4084;SDS011;2057;50.858;6.572;2023-08-31T12:08:42;14.20;;;3.97;;
4084;SDS011;2057;50.858;6.572;2023-08-31T12:11:08;8.53;;;3.57;;
4084;SDS011;2057;50.858;6.572;2023-08-31T12:13:33;10.60;;;5.50;;
4084;SDS011;2057;50.858;6.572;2023-08-31T12:15:59;14.70;;;4.93;;
4084;SDS011;2057;50.858;6.572;2023-08-31T12:18:28;13.80;;;5.10;;
4084;SDS011;2057;50.858;6.572;2023-08-31T12:20:59;12.33;;;5.47;;
4084;SDS011;2057;50.858;6.572;2023-08-31T12:23:25;9.60;;;4.00;;
4084;SDS011;2057;50.858;6.572;2023-08-31T12:25:51;9.33;;;4.33;;
4084;SDS011;2057;50.858;6.572;2023-08-31T12:28:19;17.83;;;4.27;;
4084;SDS011;2057;50.858;6.572;2023-08-31T12:30:51;10.63;;;4.27;;
4084;SDS011;2057;50.858;6.572;2023-08-31T12:33:18;11.27;;;4.20;;
4084;SDS011;2057;50.858;6.572;2023-08-31T12:35:44;8.03;;;4.27;;
4084;SDS011;2057;50.858;6.572;2023-08-31T12:38:11;4.70;;;3.50;;
4084;SDS011;2057;50.858;6.572;2023-08-31T12:40:37;15.23;;;5.77;;
4084;SDS011;2057;50.858;6.572;2023-08-31T12:43:06;5.67;;;3.63;;
4084;SDS011;2057;50.858;6.572;2023-08-31T12:45:31;15.03;;;5.07;;
4084;SDS011;2057;50.858;6.572;2023-08-31T12:47:57;14.50;;;4.50;;
4084;SDS011;2057;50.858;6.572;2023-08-31T12:50:23;23.20;;;5.63;;
4084;SDS011;2057;50.858;6.572;2023-08-31T12:52:48;11.40;;;5.10;;
4084;SDS011;2057;50.858;6.572;2023-08-31T12:55:14;10.80;;;4.27;;
4084;SDS011;2057;50.858;6.572;2023-08-31T12:57:40;11.73;;;4.10;;
4084;SDS011;2057;50.858;6.572;2023-08-31T13:00:06;10.23;;;3.90;;
4084;SDS011;2057;50.858;6.572;2023-08-31T13:02:42;5.00;;;3.10;;
4084;SDS011;2057;50.858;6.572;2023-08-31T13:05:08;5.20;;;3.20;;
4084;SDS011;2057;50.858;6.572;2023-08-31T13:07:35;3.63;;;2.37;;
4084;SDS011;2057;50.858;6.572;2023-08-31T13:10:01;4.77;;;2.60;;
4084;SDS011;2057;50.858;6.572;2023-08-31T13:12:32;5.13;;;2.20;;
4084;SDS011;2057;50.858;6.572;2023-08-31T13:14:58;14.17;;;3.53;;
4084;SDS011;2057;50.858;6.572;2023-08-31T13:17:24;5.13;;;2.73;;
4084;SDS011;2057;50.858;6.572;2023-08-31T13:19:55;11.83;;;2.60;;
4084;SDS011;2057;50.858;6.572;2023-08-31T13:22:22;8.13;;;3.00;;
4084;SDS011;2057;50.858;6.572;2023-08-31T13:24:48;3.17;;;2.70;;
4084;SDS011;2057;50.858;6.572;2023-08-31T13:27:14;5.80;;;3.13;;
4084;SDS011;2057;50.858;6.572;2023-08-31T13:29:39;4.70;;;2.53;;
4084;SDS011;2057;50.858;6.572;2023-08-31T13:32:07;5.70;;;3.27;;
4084;SDS011;2057;50.858;6.572;2023-08-31T13:34:33;5.63;;;2.57;;
4084;SDS011;2057;50.858;6.572;2023-08-31T13:36:58;9.63;;;3.53;;
4084;SDS011;2057;50.858;6.572;2023-08-31T13:39:25;7.73;;;2.73;;
4084;SDS011;2057;50.858;6.572;2023-08-31T13:41:51;7.10;;;3.50;;
4084;SDS011;2057;50.858;6.572;2023-08-31T13:44:18;9.30;;;3.10;;
4084;SDS011;2057;50.858;6.572;2023-08-31T13:46:45;6.33;;;3.40;;
4084;SDS011;2057;50.858;6.572;2023-08-31T13:49:10;6.80;;;2.53;;
4084;SDS011;2057;50.858;6.572;2023-08-31T13:51:36;11.70;;;3.70;;
4084;SDS011;2057;50.858;6.572;2023-08-31T13:54:02;8.13;;;3.10;;
4084;SDS011;2057;50.858;6.572;2023-08-31T13:56:32;10.27;;;3.47;;
4084;SDS011;2057;50.858;6.572;2023-08-31T13:58:57;4.93;;;2.93;;
4084;SDS011;2057;50.858;6.572;2023-08-31T14:01:23;9.40;;;3.20;;
4084;SDS011;2057;50.858;6.572;2023-08-31T14:03:49;6.90;;;2.80;;
4084;SDS011;2057;50.858;6.572;2023-08-31T14:06:17;9.33;;;2.77;;
4084;SDS011;2057;50.858;6.572;2023-08-31T14:08:43;6.87;;;2.73;;
4084;SDS011;2057;50.858;6.572;2023-08-31T14:11:08;8.43;;;3.00;;
4084;SDS011;2057;50.858;6.572;2023-08-31T14:13:34;5.00;;;2.30;;
4084;SDS011;2057;50.858;6.572;2023-08-31T14:15:59;7.53;;;2.30;;
4084;SDS011;2057;50.858;6.572;2023-08-31T14:18:29;10.60;;;2.73;;
4084;SDS011;2057;50.858;6.572;2023-08-31T14:20:55;8.43;;;2.10;;
4084;SDS011;2057;50.858;6.572;2023-08-31T14:23:23;11.50;;;2.67;;
4084;SDS011;2057;50.858;6.572;2023-08-31T14:25:49;4.20;;;2.57;;
4084;SDS011;2057;50.858;6.572;2023-08-31T14:28:14;6.57;;;2.43;;
4084;SDS011;2057;50.858;6.572;2023-08-31T14:30:39;5.83;;;2.50;;
4084;SDS011;2057;50.858;6.572;2023-08-31T14:33:05;7.93;;;2.63;;
4084;SDS011;2057;50.858;6.572;2023-08-31T14:35:33;7.83;;;2.50;;
4084;SDS011;2057;50.858;6.572;2023-08-31T14:38:10;7.50;;;2.40;;
4084;SDS011;2057;50.858;6.572;2023-08-31T14:40:37;4.60;;;2.63;;
4084;SDS011;2057;50.858;6.572;2023-08-31T14:43:06;4.57;;;2.37;;
4084;SDS011;2057;50.858;6.572;2023-08-31T14:45:31;5.20;;;2.67;;
4084;SDS011;2057;50.858;6.572;2023-08-31T14:47:57;8.87;;;2.77;;
4084;SDS011;2057;50.858;6.572;2023-08-31T14:50:22;11.33;;;3.07;;
4084;SDS011;2057;50.858;6.572;2023-08-31T14:52:48;4.50;;;2.80;;
4084;SDS011;2057;50.858;6.572;2023-08-31T14:55:14;4.73;;;2.37;;
4084;SDS011;2057;50.858;6.572;2023-08-31T14:57:39;5.53;;;2.83;;
4084;SDS011;2057;50.858;6.572;2023-08-31T15:00:07;3.80;;;2.37;;
4084;SDS011;2057;50.858;6.572;2023-08-31T15:02:33;3.80;;;2.37;;
4084;SDS011;2057;50.858;6.572;2023-08-31T15:04:59;5.63;;;2.67;;
4084;SDS011;2057;50.858;6.572;2023-08-31T15:07:24;4.67;;;2.60;;
4084;SDS011;2057;50.858;6.572;2023-08-31T15:09:51;5.40;;;2.50;;
4084;SDS011;2057;50.858;6.572;2023-08-31T15:12:17;7.07;;;2.43;;
4084;SDS011;2057;50.858;6.572;2023-08-31T15:14:45;4.50;;;2.23;;
4084;SDS011;2057;50.858;6.572;2023-08-31T15:17:10;8.20;;;2.80;;
4084;SDS011;2057;50.858;6.572;2023-08-31T15:19:35;8.13;;;3.20;;
4084;SDS011;2057;50.858;6.572;2023-08-31T15:22:03;10.63;;;2.30;;
4084;SDS011;2057;50.858;6.572;2023-08-31T15:24:29;6.10;;;2.60;;
4084;SDS011;2057;50.858;6.572;2023-08-31T15:26:55;7.63;;;2.27;;
4084;SDS011;2057;50.858;6.572;2023-08-31T15:29:20;8.60;;;2.50;;
4084;SDS011;2057;50.858;6.572;2023-08-31T15:31:46;9.43;;;3.13;;
4084;SDS011;2057;50.858;6.572;2023-08-31T15:34:12;3.27;;;2.30;;
4084;SDS011;2057;50.858;6.572;2023-08-31T15:36:37;3.70;;;2.20;;